Time;durP1;ratioP1;P1;durP2;ratioP2;P2;SDS_P1;SDS_P2;PMS_P1;PMS_P2;Temp;Humidity;BMP_temperature;BMP_pressure;BME280_temperature;BME280_humidity;BME280_pressure;Samples;Min_cycle;Max_cycle;Signal;HPM_P1;HPM_P2
2022/11/20 00:01:37;;;;;;;;;;;-3.90;99.90;;;;;;2621813;46;19935;31
2022/11/20 00:04:12;;;;;;;;;;;-3.90;99.90;;;;;;2621834;46;20787;31
2022/11/20 00:06:46;;;;;;;;;;;-3.90;99.90;;;;;;2603407;54;19934;31
2022/11/20 00:09:20;;;;;;;;;;;-3.90;99.90;;;;;;2605456;47;19942;31
2022/11/20 00:11:54;;;;;;;;;;;-4.00;99.90;;;;;;2621418;47;19947;31
2022/11/20 00:14:31;;;;;;;;;;;-4.00;99.90;;;;;;2701896;39;21517;31
2022/11/20 00:17:04;;;;;;;;;;;-4.10;99.90;;;;;;2602814;54;20771;31
2022/11/20 00:19:38;;;;;;;;;;;-4.10;99.90;;;;;;2603190;54;20816;31
2022/11/20 00:22:12;;;;;;;;;;;-4.10;99.90;;;;;;2621565;47;19942;31
2022/11/20 00:24:46;;;;;;;;;;;-4.20;99.90;;;;;;2621666;47;19934;31
2022/11/20 00:27:20;;;;;;;;;;;-4.20;99.90;;;;;;2621555;47;19961;31
2022/11/20 00:29:57;;;;;;;;;;;-4.10;99.90;;;;;;2602993;54;19935;31
2022/11/20 00:32:29;;;;;;;;;;;-4.20;99.90;;;;;;2603331;54;20764;31
2022/11/20 00:35:03;;;;;;;;;;;-4.20;99.90;;;;;;2621813;47;19935;31
2022/11/20 00:37:39;;;;;;;;;;;-4.20;99.90;;;;;;2602776;54;20770;31
2022/11/20 00:40:14;;;;;;;;;;;-4.20;99.90;;;;;;2603064;54;20759;31
2022/11/20 00:42:47;;;;;;;;;;;-4.30;99.90;;;;;;2602807;54;19935;31
2022/11/20 00:45:24;;;;;;;;;;;-4.30;99.90;;;;;;2603016;54;20785;31
2022/11/20 00:47:57;;;;;;;;;;;-4.30;99.90;;;;;;2602998;54;21263;31
2022/11/20 00:50:31;;;;;;;;;;;-4.30;99.90;;;;;;2603051;54;19934;31
2022/11/20 00:53:05;;;;;;;;;;;-4.30;99.90;;;;;;2603138;54;19941;31
2022/11/20 00:55:39;;;;;;;;;;;-4.30;99.90;;;;;;2621666;47;21447;31
2022/11/20 00:58:13;;;;;;;;;;;-4.30;99.90;;;;;;2602913;54;20889;31
2022/11/20 01:00:50;;;;;;;;;;;-4.30;99.90;;;;;;2621444;47;20483;31
2022/11/20 01:03:23;;;;;;;;;;;-4.30;99.90;;;;;;2621232;47;20005;31
2022/11/20 01:06:02;;;;;;;;;;;-4.30;99.90;;;;;;2621607;47;19941;31
2022/11/20 01:08:36;;;;;;;;;;;-4.10;99.90;;;;;;2621279;47;20564;31
2022/11/20 01:11:10;;;;;;;;;;;-4.40;99.90;;;;;;2602941;54;20764;31
2022/11/20 01:13:42;;;;;;;;;;;-4.30;99.90;;;;;;2602872;54;20774;31
2022/11/20 01:16:16;;;;;;;;;;;-4.40;99.90;;;;;;2603256;54;19960;31
2022/11/20 01:18:51;;;;;;;;;;;-4.40;99.90;;;;;;2621564;47;19941;31
2022/11/20 01:21:26;;;;;;;;;;;-4.40;99.90;;;;;;2603055;54;19947;31
2022/11/20 01:24:00;;;;;;;;;;;-4.40;99.90;;;;;;2603999;54;20756;31
2022/11/20 01:26:34;;;;;;;;;;;-4.40;99.90;;;;;;2603726;54;19957;31
2022/11/20 01:29:08;;;;;;;;;;;-4.40;99.90;;;;;;2603614;54;19997;31
2022/11/20 01:31:42;;;;;;;;;;;-4.40;99.90;;;;;;2603937;54;19935;31
2022/11/20 01:34:19;;;;;;;;;;;-4.40;99.90;;;;;;2603805;54;20803;31
2022/11/20 01:36:54;;;;;;;;;;;-4.40;99.90;;;;;;2603791;54;20736;31
2022/11/20 01:39:28;;;;;;;;;;;-4.40;99.90;;;;;;2622452;46;19941;31
2022/11/20 01:44:57;;;;;;;;;;;-4.40;99.90;;;;;;2603738;54;19939;31
2022/11/20 01:47:35;;;;;;;;;;;-4.40;99.90;;;;;;2622200;46;19997;31
2022/11/20 01:50:12;;;;;;;;;;;-4.40;99.90;;;;;;2603812;54;20002;31
2022/11/20 01:52:45;;;;;;;;;;;-4.50;99.90;;;;;;2603958;54;19953;31
2022/11/20 01:55:20;;;;;;;;;;;-4.50;99.90;;;;;;2603813;54;19934;31
2022/11/20 01:57:54;;;;;;;;;;;-4.50;99.90;;;;;;2702259;39;20385;31
2022/11/20 02:00:27;;;;;;;;;;;-4.50;99.90;;;;;;2603569;54;20674;31
2022/11/20 02:03:02;;;;;;;;;;;-4.50;99.90;;;;;;2603721;54;20828;31
2022/11/20 02:05:39;;;;;;;;;;;-4.60;99.90;;;;;;2603764;54;19989;31
2022/11/20 02:08:11;;;;;;;;;;;-4.60;99.90;;;;;;2702190;39;20405;31
2022/11/20 02:10:45;;;;;;;;;;;-4.70;99.90;;;;;;2621959;46;19946;31
2022/11/20 02:16:06;;;;;;;;;;;-4.70;99.90;;;;;;2622329;46;19935;31
2022/11/20 02:18:39;;;;;;;;;;;-4.70;99.90;;;;;;2603758;54;19949;31
2022/11/20 02:21:20;;;;;;;;;;;-4.70;99.90;;;;;;2603449;54;19997;31
2022/11/20 02:24:11;;;;;;;;;;;-4.70;99.90;;;;;;2622009;46;19941;31
2022/11/20 02:26:45;;;;;;;;;;;-4.70;99.90;;;;;;2603582;54;20769;31
2022/11/20 02:29:21;;;;;;;;;;;-4.80;99.90;;;;;;2603475;54;20716;31
2022/11/20 02:31:55;;;;;;;;;;;-4.80;99.90;;;;;;2603749;54;20749;31
2022/11/20 02:34:29;;;;;;;;;;;-4.80;99.90;;;;;;2621783;46;19934;31
2022/11/20 02:37:01;;;;;;;;;;;-4.80;99.90;;;;;;2603788;54;20818;31
2022/11/20 02:39:35;;;;;;;;;;;-4.80;99.90;;;;;;2603595;54;19941;31
2022/11/20 02:42:09;;;;;;;;;;;-4.80;99.90;;;;;;2603616;54;19941;31
2022/11/20 02:44:46;;;;;;;;;;;-4.90;99.90;;;;;;2603545;54;20003;31
2022/11/20 02:47:19;;;;;;;;;;;-4.90;99.90;;;;;;2621914;46;19947;31
2022/11/20 02:49:51;;;;;;;;;;;-4.90;99.90;;;;;;2603702;54;20768;31
2022/11/20 02:52:23;;;;;;;;;;;-4.90;99.90;;;;;;2603492;54;20796;31
2022/11/20 02:54:57;;;;;;;;;;;-4.90;99.90;;;;;;2603800;54;19981;31
2022/11/20 02:57:31;;;;;;;;;;;-4.90;99.90;;;;;;2603498;54;19941;31
2022/11/20 03:00:09;;;;;;;;;;;-4.90;99.90;;;;;;2603689;54;19943;31
2022/11/20 03:02:42;;;;;;;;;;;-5.00;99.90;;;;;;2603492;54;20785;31
2022/11/20 03:05:16;;;;;;;;;;;-5.00;99.90;;;;;;2622103;46;20481;31
2022/11/20 03:07:50;;;;;;;;;;;-5.00;99.90;;;;;;2622017;46;19941;31
2022/11/20 03:10:22;;;;;;;;;;;-5.00;99.90;;;;;;2621424;46;21611;31
2022/11/20 03:12:55;;;;;;;;;;;-5.00;99.90;;;;;;2621959;46;20030;31
2022/11/20 03:15:31;;;;;;;;;;;-5.00;99.90;;;;;;2603398;54;20803;31
2022/11/20 03:18:03;;;;;;;;;;;-5.00;99.90;;;;;;2603330;54;20727;31
2022/11/20 03:20:37;;;;;;;;;;;-5.00;99.90;;;;;;2720515;39;20429;31
2022/11/20 03:23:11;;;;;;;;;;;-4.10;99.90;;;;;;2621797;46;19941;31
2022/11/20 03:25:45;;;;;;;;;;;-5.10;99.90;;;;;;2622034;46;19934;31
2022/11/20 03:28:19;;;;;;;;;;;-5.10;99.90;;;;;;2603440;54;19934;31
2022/11/20 03:30:56;;;;;;;;;;;-5.10;99.90;;;;;;2621357;46;20695;31
2022/11/20 03:33:30;;;;;;;;;;;-5.10;99.90;;;;;;2603194;54;20770;31
2022/11/20 03:36:03;;;;;;;;;;;-5.10;99.90;;;;;;2621622;46;19993;31
2022/11/20 03:38:36;;;;;;;;;;;-5.10;99.90;;;;;;2621954;46;20795;31
2022/11/20 03:41:11;;;;;;;;;;;-5.20;99.90;;;;;;2603461;54;20702;31
2022/11/20 03:43:44;;;;;;;;;;;-5.10;99.90;;;;;;2603468;54;20791;31
2022/11/20 03:46:21;;;;;;;;;;;-5.10;99.90;;;;;;2603551;54;19934;31
2022/11/20 03:48:54;;;;;;;;;;;-5.20;99.90;;;;;;2603478;54;20811;31
2022/11/20 03:51:29;;;;;;;;;;;-5.20;99.90;;;;;;2603481;54;20782;31
2022/11/20 03:54:03;;;;;;;;;;;-5.20;99.90;;;;;;2603323;54;19935;31
2022/11/20 03:56:37;;;;;;;;;;;-5.10;99.90;;;;;;2603295;54;20028;31
2022/11/20 03:59:12;;;;;;;;;;;-5.10;99.90;;;;;;2622017;46;19938;31
2022/11/20 04:01:48;;;;;;;;;;;-5.20;99.90;;;;;;2603600;54;19934;31
2022/11/20 04:04:21;;;;;;;;;;;-5.20;99.90;;;;;;2603180;54;19941;31
2022/11/20 04:06:53;;;;;;;;;;;-5.20;99.90;;;;;;2611003;46;19941;31
2022/11/20 04:09:27;;;;;;;;;;;-5.20;99.90;;;;;;2621732;46;19934;31
2022/11/20 04:12:01;;;;;;;;;;;-5.20;99.90;;;;;;2701976;39;20339;31
2022/11/20 04:14:35;;;;;;;;;;;-5.20;99.90;;;;;;2603394;54;20868;31
2022/11/20 04:17:12;;;;;;;;;;;-5.20;99.90;;;;;;2603492;54;20753;31
2022/11/20 04:19:45;;;;;;;;;;;-5.30;99.90;;;;;;2603124;54;20830;31
2022/11/20 04:22:19;;;;;;;;;;;-5.30;99.90;;;;;;2621571;47;20826;31
2022/11/20 04:24:53;;;;;;;;;;;-5.30;99.90;;;;;;2603354;54;20803;31
2022/11/20 04:27:25;;;;;;;;;;;-5.30;99.90;;;;;;2603323;54;19938;31
2022/11/20 04:29:59;;;;;;;;;;;-5.30;99.90;;;;;;2603215;54;19935;31
2022/11/20 04:32:36;;;;;;;;;;;-5.30;99.90;;;;;;2603033;54;19947;31
2022/11/20 04:35:10;;;;;;;;;;;-5.30;99.90;;;;;;2603318;54;20756;31
2022/11/20 04:37:43;;;;;;;;;;;-5.30;99.90;;;;;;2603087;54;20798;31
2022/11/20 04:40:17;;;;;;;;;;;-5.30;99.90;;;;;;2603307;54;20772;31
2022/11/20 04:42:49;;;;;;;;;;;-5.40;99.90;;;;;;2621030;47;20780;31
2022/11/20 04:45:21;;;;;;;;;;;-5.40;99.90;;;;;;2621570;47;19941;31
2022/11/20 04:47:58;;;;;;;;;;;-5.50;99.90;;;;;;2621765;47;19934;31
2022/11/20 04:50:31;;;;;;;;;;;-5.50;99.90;;;;;;2603207;54;19934;31
2022/11/20 04:53:03;;;;;;;;;;;-5.50;99.90;;;;;;2603035;54;20888;31
2022/11/20 04:55:37;;;;;;;;;;;-5.60;99.90;;;;;;2621399;47;19993;31
2022/11/20 04:58:11;;;;;;;;;;;-5.60;99.90;;;;;;2603876;54;19950;31
2022/11/20 05:00:45;;;;;;;;;;;-5.60;99.90;;;;;;2603912;54;20007;31
2022/11/20 05:03:22;;;;;;;;;;;-5.60;99.90;;;;;;2622528;46;20760;31
2022/11/20 05:05:55;;;;;;;;;;;-5.70;99.90;;;;;;2603981;54;19942;31
2022/11/20 05:08:29;;;;;;;;;;;-5.70;99.90;;;;;;2604092;54;20793;31
2022/11/20 05:11:02;;;;;;;;;;;-5.70;99.90;;;;;;2702383;39;20408;31
2022/11/20 05:13:35;;;;;;;;;;;-5.70;99.90;;;;;;2603985;54;19996;31
2022/11/20 05:16:10;;;;;;;;;;;-5.70;99.90;;;;;;2622366;46;19942;31
2022/11/20 05:18:46;;;;;;;;;;;-5.70;99.90;;;;;;2603954;54;20752;31
2022/11/20 05:21:19;;;;;;;;;;;-5.70;99.90;;;;;;2603989;54;20761;31
2022/11/20 05:23:53;;;;;;;;;;;-5.70;99.90;;;;;;2603959;54;19935;31
2022/11/20 05:26:27;;;;;;;;;;;-5.70;99.90;;;;;;2604013;54;19938;31
2022/11/20 05:29:01;;;;;;;;;;;-5.70;99.90;;;;;;2622468;46;20865;31
2022/11/20 05:31:33;;;;;;;;;;;-5.70;99.90;;;;;;2622484;46;19942;31
2022/11/20 05:34:10;;;;;;;;;;;-5.50;99.90;;;;;;2622379;46;20814;31
2022/11/20 05:36:42;;;;;;;;;;;-5.80;99.90;;;;;;2603957;54;19993;31
2022/11/20 05:39:18;;;;;;;;;;;-5.80;99.90;;;;;;2702197;39;21279;31
2022/11/20 05:42:29;;;;;;;;;;;-5.70;99.90;;;;;;2603723;54;19934;31
2022/11/20 05:44:46;;;;;;;;;;;-5.70;99.90;;;;;;2603453;54;19934;31
2022/11/20 05:47:20;;;;;;;;;;;-5.70;99.90;;;;;;2622313;46;20008;31
2022/11/20 05:49:57;;;;;;;;;;;-5.80;99.90;;;;;;2702159;39;21298;31
2022/11/20 05:52:30;;;;;;;;;;;-5.80;99.90;;;;;;2603762;54;20744;31
2022/11/20 05:55:04;;;;;;;;;;;-5.80;99.90;;;;;;2603429;54;20369;31
2022/11/20 05:57:38;;;;;;;;;;;-5.80;99.90;;;;;;2603745;54;19943;31
2022/11/20 06:00:13;;;;;;;;;;;-5.80;99.90;;;;;;2603562;54;19942;31
2022/11/20 06:02:46;;;;;;;;;;;-5.80;99.90;;;;;;2622192;46;20750;31
2022/11/20 06:05:21;;;;;;;;;;;-5.80;99.90;;;;;;2603461;54;20831;31
2022/11/20 06:07:53;;;;;;;;;;;-5.80;99.90;;;;;;2621983;46;20043;31
2022/11/20 06:10:25;;;;;;;;;;;-5.80;99.90;;;;;;2603581;54;20817;31
2022/11/20 06:12:59;;;;;;;;;;;-5.90;99.90;;;;;;2603812;54;19950;31
2022/11/20 06:15:33;;;;;;;;;;;-5.90;99.90;;;;;;2621985;46;20001;31
2022/11/20 06:18:07;;;;;;;;;;;-5.90;99.90;;;;;;2603856;54;20781;31
2022/11/20 06:20:44;;;;;;;;;;;-6.00;99.90;;;;;;2622081;46;19993;31
2022/11/20 06:23:17;;;;;;;;;;;-6.00;99.90;;;;;;2720796;39;20385;31
2022/11/20 06:25:51;;;;;;;;;;;-6.00;99.90;;;;;;2702161;39;20398;31
2022/11/20 06:28:25;;;;;;;;;;;-6.00;99.90;;;;;;2603492;54;20785;31
2022/11/20 06:30:59;;;;;;;;;;;-6.00;99.90;;;;;;2603878;54;19940;31
2022/11/20 06:33:33;;;;;;;;;;;-6.00;99.90;;;;;;2622107;46;19993;31
2022/11/20 06:36:11;;;;;;;;;;;-6.00;99.90;;;;;;2603764;54;19935;31
2022/11/20 06:38:44;;;;;;;;;;;-6.00;99.90;;;;;;2603613;54;19938;31
2022/11/20 06:41:20;;;;;;;;;;;-6.00;99.90;;;;;;2720547;39;20373;31
2022/11/20 06:43:53;;;;;;;;;;;-5.90;99.90;;;;;;2603691;54;19962;31
2022/11/20 06:46:27;;;;;;;;;;;-5.20;99.90;;;;;;2603221;54;19934;31
2022/11/20 06:49:01;;;;;;;;;;;-5.90;99.90;;;;;;2603202;54;20470;31
2022/11/20 06:51:38;;;;;;;;;;;-5.90;99.90;;;;;;2603657;54;19940;31
2022/11/20 06:54:10;;;;;;;;;;;-5.90;99.90;;;;;;2622115;46;19942;31
2022/11/20 06:56:44;;;;;;;;;;;-5.80;99.90;;;;;;2602747;54;19934;31
2022/11/20 06:59:18;;;;;;;;;;;-5.80;99.90;;;;;;2621377;46;19934;31
2022/11/20 07:01:52;;;;;;;;;;;-5.70;99.90;;;;;;2603464;54;20767;31
2022/11/20 07:04:26;;;;;;;;;;;-5.70;99.90;;;;;;2603271;54;20834;31
2022/11/20 07:07:03;;;;;;;;;;;-5.60;99.90;;;;;;2603607;54;19958;31
2022/11/20 07:09:36;;;;;;;;;;;-5.50;99.90;;;;;;2702145;39;20401;31
2022/11/20 07:12:10;;;;;;;;;;;-5.10;99.90;;;;;;2603513;54;20755;31
2022/11/20 07:14:44;;;;;;;;;;;-4.40;99.90;;;;;;2622244;46;20789;31
2022/11/20 07:17:18;;;;;;;;;;;-3.80;99.90;;;;;;2603276;54;19941;31
2022/11/20 07:19:52;;;;;;;;;;;-3.00;99.90;;;;;;2701863;39;21465;31
2022/11/20 07:22:29;;;;;;;;;;;-2.40;99.90;;;;;;2603495;54;20022;31
2022/11/20 07:25:04;;;;;;;;;;;-1.80;99.90;;;;;;2621655;46;19934;31
2022/11/20 07:27:38;;;;;;;;;;;-1.30;99.90;;;;;;2622003;46;20789;31
2022/11/20 07:30:13;;;;;;;;;;;-0.80;99.90;;;;;;2622260;46;20758;31
2022/11/20 07:32:49;;;;;;;;;;;-0.30;99.90;;;;;;2622038;46;20795;31
2022/11/20 07:35:22;;;;;;;;;;;0.20;99.90;;;;;;2603460;54;20036;31
2022/11/20 07:37:59;;;;;;;;;;;0.60;99.90;;;;;;2603596;54;19935;31
2022/11/20 07:40:32;;;;;;;;;;;0.80;99.90;;;;;;2622040;46;19997;31
2022/11/20 07:43:06;;;;;;;;;;;1.20;99.90;;;;;;2621822;46;19946;31
2022/11/20 07:45:40;;;;;;;;;;;1.60;99.90;;;;;;2603284;54;20795;31
2022/11/20 07:48:16;;;;;;;;;;;1.80;99.90;;;;;;2603280;54;20800;31
2022/11/20 07:50:49;;;;;;;;;;;1.90;99.90;;;;;;2603218;54;19934;31
2022/11/20 07:53:25;;;;;;;;;;;2.10;99.90;;;;;;2621735;46;19941;31
2022/11/20 07:56:02;;;;;;;;;;;2.20;99.90;;;;;;2603576;54;20745;31
2022/11/20 07:58:35;;;;;;;;;;;2.20;99.90;;;;;;2621775;46;20797;31
2022/11/20 08:01:09;;;;;;;;;;;2.10;99.90;;;;;;2621970;46;19950;31
2022/11/20 08:03:43;;;;;;;;;;;2.30;99.90;;;;;;2701812;39;20374;31
2022/11/20 08:06:18;;;;;;;;;;;2.40;99.90;;;;;;2603474;54;20029;31
2022/11/20 08:08:54;;;;;;;;;;;2.50;99.90;;;;;;2603177;54;20863;31
2022/11/20 08:14:15;;;;;;;;;;;2.70;99.90;;;;;;2621470;46;20809;31
2022/11/20 08:16:50;;;;;;;;;;;2.90;99.90;;;;;;2621814;47;19996;31
2022/11/20 08:19:24;;;;;;;;;;;3.20;99.90;;;;;;2621896;47;19960;31
2022/11/20 08:21:57;;;;;;;;;;;3.10;99.90;;;;;;2603204;54;20025;31
2022/11/20 08:24:35;;;;;;;;;;;3.10;99.90;;;;;;2603383;54;19954;31
2022/11/20 08:27:09;;;;;;;;;;;3.20;99.90;;;;;;2622112;47;20727;31
2022/11/20 08:29:42;;;;;;;;;;;3.40;99.90;;;;;;2621866;47;19938;31
2022/11/20 08:32:16;;;;;;;;;;;3.50;99.90;;;;;;2622294;47;19942;31
2022/11/20 08:34:51;;;;;;;;;;;3.70;99.90;;;;;;2604226;54;19934;31
2022/11/20 08:37:25;;;;;;;;;;;3.80;99.90;;;;;;2603980;54;19941;31
2022/11/20 08:40:02;;;;;;;;;;;3.80;99.90;;;;;;2721292;39;20412;31
2022/11/20 08:42:36;;;;;;;;;;;3.90;99.90;;;;;;2721357;39;20461;31
2022/11/20 08:45:11;;;;;;;;;;;4.00;99.90;;;;;;2604133;54;19942;31
2022/11/20 08:47:45;;;;;;;;;;;4.20;99.90;;;;;;2702724;39;20468;31
2022/11/20 08:50:19;;;;;;;;;;;4.40;99.90;;;;;;2603913;54;19934;31
2022/11/20 08:52:52;;;;;;;;;;;4.60;99.90;;;;;;2604337;54;20481;31
2022/11/20 08:55:30;;;;;;;;;;;4.40;99.90;;;;;;2603898;54;20731;31
2022/11/20 08:58:05;;;;;;;;;;;4.30;99.90;;;;;;2622550;46;20021;31
2022/11/20 09:00:39;;;;;;;;;;;4.30;99.90;;;;;;2622479;46;19946;31
2022/11/20 09:03:14;;;;;;;;;;;4.50;99.90;;;;;;2604249;54;19935;31
2022/11/20 09:05:49;;;;;;;;;;;4.60;99.90;;;;;;2603797;54;20836;31
2022/11/20 09:08:24;;;;;;;;;;;4.70;99.90;;;;;;2603846;54;19969;31
2022/11/20 09:11:00;;;;;;;;;;;4.70;99.90;;;;;;2603979;54;19935;31
2022/11/20 09:13:35;;;;;;;;;;;4.90;99.90;;;;;;2603920;54;19938;31
2022/11/20 09:16:10;;;;;;;;;;;4.70;99.90;;;;;;2603842;54;20788;31
2022/11/20 09:18:45;;;;;;;;;;;4.80;99.90;;;;;;2622448;46;19934;31
2022/11/20 09:21:19;;;;;;;;;;;4.90;99.90;;;;;;2603772;54;19961;31
2022/11/20 09:23:52;;;;;;;;;;;5.10;99.90;;;;;;2622397;46;19942;31
2022/11/20 09:26:30;;;;;;;;;;;6.00;99.90;;;;;;2603919;54;20017;31
2022/11/20 09:29:05;;;;;;;;;;;5.10;99.90;;;;;;2603928;54;21351;31
2022/11/20 09:31:40;;;;;;;;;;;5.10;99.90;;;;;;2622132;46;19934;31
2022/11/20 09:34:14;;;;;;;;;;;5.30;99.90;;;;;;2622002;46;20784;31
2022/11/20 09:36:48;;;;;;;;;;;5.20;99.90;;;;;;2622371;46;19942;31
2022/11/20 09:39:22;;;;;;;;;;;5.20;99.90;;;;;;2622191;46;19935;31
2022/11/20 09:42:10;;;;;;;;;;;5.30;99.90;;;;;;2622260;46;20829;31
2022/11/20 09:44:50;;;;;;;;;;;5.40;99.90;;;;;;2622482;46;20033;31
2022/11/20 09:47:27;;;;;;;;;;;5.30;99.90;;;;;;2622096;46;19942;31
2022/11/20 09:50:04;;;;;;;;;;;5.20;99.90;;;;;;2603610;54;20702;31
2022/11/20 09:52:40;;;;;;;;;;;5.20;99.90;;;;;;2622173;46;20040;31
2022/11/20 09:55:15;;;;;;;;;;;5.20;99.90;;;;;;2603751;54;20745;31
2022/11/20 09:57:52;;;;;;;;;;;5.10;99.90;;;;;;2603649;54;19943;31
2022/11/20 10:00:26;;;;;;;;;;;5.10;99.90;;;;;;2603663;54;20823;31
2022/11/20 10:03:02;;;;;;;;;;;5.10;99.90;;;;;;2603604;54;20735;31
2022/11/20 10:05:37;;;;;;;;;;;5.00;99.90;;;;;;2603730;54;19934;31
2022/11/20 10:08:13;;;;;;;;;;;5.00;99.90;;;;;;2603722;54;20009;31
2022/11/20 10:10:50;;;;;;;;;;;4.90;99.90;;;;;;2603767;54;20025;31
2022/11/20 10:13:35;;;;;;;;;;;4.80;99.90;;;;;;2603609;54;19934;31
2022/11/20 10:16:17;;;;;;;;;;;4.80;99.90;;;;;;2622218;46;20737;31
2022/11/20 10:19:20;;;;;;;;;;;4.80;99.90;;;;;;2602730;54;19949;31
2022/11/20 10:21:56;;;;;;;;;;;4.70;99.90;;;;;;2702561;39;20378;31
2022/11/20 10:24:38;;;;;;;;;;;4.50;99.90;;;;;;2603643;54;20771;31
2022/11/20 10:27:12;;;;;;;;;;;4.40;99.90;;;;;;2621963;46;19938;31
2022/11/20 10:29:50;;;;;;;;;;;4.30;99.90;;;;;;2603806;54;19993;31
2022/11/20 10:32:25;;;;;;;;;;;4.20;99.90;;;;;;2702343;39;20288;31
2022/11/20 10:35:00;;;;;;;;;;;4.00;99.90;;;;;;2622337;46;20378;31
2022/11/20 10:37:35;;;;;;;;;;;3.90;99.90;;;;;;2622180;46;19934;31
2022/11/20 10:40:14;;;;;;;;;;;3.90;99.90;;;;;;2603831;54;19934;31
2022/11/20 10:42:50;;;;;;;;;;;3.80;99.90;;;;;;2603368;54;20798;31
2022/11/20 10:45:31;;;;;;;;;;;3.80;99.90;;;;;;2622113;46;20727;31
2022/11/20 10:48:10;;;;;;;;;;;3.70;99.90;;;;;;2603872;54;19934;31
2022/11/20 10:50:43;;;;;;;;;;;3.70;99.90;;;;;;2622022;46;19957;31
2022/11/20 10:53:18;;;;;;;;;;;3.60;99.90;;;;;;2622213;46;20751;31
2022/11/20 10:55:53;;;;;;;;;;;3.50;99.90;;;;;;2603060;54;19939;31
2022/11/20 10:58:28;;;;;;;;;;;3.40;99.90;;;;;;2603598;54;19997;31
2022/11/20 11:01:08;;;;;;;;;;;3.20;99.90;;;;;;2622073;46;20486;31
2022/11/20 11:03:42;;;;;;;;;;;3.00;99.90;;;;;;2603801;54;20712;31
2022/11/20 11:06:18;;;;;;;;;;;2.90;99.90;;;;;;2622366;46;19960;31
2022/11/20 11:08:51;;;;;;;;;;;2.90;99.90;;;;;;2622317;46;19935;31
2022/11/20 11:11:25;;;;;;;;;;;2.80;99.90;;;;;;2621931;46;19934;31
2022/11/20 11:14:06;;;;;;;;;;;2.70;99.90;;;;;;2621992;46;20468;31
2022/11/20 11:16:52;;;;;;;;;;;2.60;99.90;;;;;;2603821;54;19943;31
2022/11/20 11:19:26;;;;;;;;;;;2.50;99.90;;;;;;2603206;54;19941;31
2022/11/20 11:21:59;;;;;;;;;;;2.40;99.90;;;;;;2603497;54;20755;31
2022/11/20 11:24:34;;;;;;;;;;;2.40;99.90;;;;;;2603698;54;19935;31
2022/11/20 11:27:17;;;;;;;;;;;2.40;99.90;;;;;;2603319;54;19940;31
2022/11/20 11:29:51;;;;;;;;;;;2.40;99.90;;;;;;2621920;46;20735;31
2022/11/20 11:32:28;;;;;;;;;;;2.30;99.90;;;;;;2621703;46;20751;31
2022/11/20 11:35:01;;;;;;;;;;;2.20;99.90;;;;;;2720223;39;20320;31
2022/11/20 11:37:35;;;;;;;;;;;2.20;99.90;;;;;;2603517;54;19998;31
2022/11/20 11:40:09;;;;;;;;;;;2.20;99.90;;;;;;2603615;54;20786;31
2022/11/20 11:43:00;;;;;;;;;;;2.10;99.90;;;;;;2603568;54;20735;31
2022/11/20 11:45:32;;;;;;;;;;;2.10;99.90;;;;;;2603564;54;19935;31
2022/11/20 11:48:10;;;;;;;;;;;2.00;99.90;;;;;;2622094;46;19941;31
2022/11/20 11:50:50;;;;;;;;;;;2.00;99.90;;;;;;2702047;39;20381;31
2022/11/20 11:53:24;;;;;;;;;;;1.90;99.90;;;;;;2607761;46;19941;31
2022/11/20 11:55:59;;;;;;;;;;;1.90;99.90;;;;;;2603386;54;19977;31
2022/11/20 11:58:37;;;;;;;;;;;1.90;99.90;;;;;;2702000;39;20394;31
2022/11/20 12:01:13;;;;;;;;;;;1.90;99.90;;;;;;2603460;54;20478;31
2022/11/20 12:03:51;;;;;;;;;;;1.90;99.90;;;;;;2603327;54;20008;31
2022/11/20 12:06:24;;;;;;;;;;;1.90;99.90;;;;;;2603751;54;20728;31
2022/11/20 12:08:58;;;;;;;;;;;1.90;99.90;;;;;;2621759;46;20507;31
2022/11/20 12:11:34;;;;;;;;;;;1.90;99.90;;;;;;2603590;54;20724;31
2022/11/20 12:14:11;;;;;;;;;;;1.90;99.90;;;;;;2622070;46;20750;31
2022/11/20 12:16:46;;;;;;;;;;;1.90;99.90;;;;;;2603356;54;20766;31
2022/11/20 12:19:23;;;;;;;;;;;1.80;99.90;;;;;;2603362;54;19941;31
2022/11/20 12:21:58;;;;;;;;;;;1.80;99.90;;;;;;2603306;54;19995;31
2022/11/20 12:24:43;;;;;;;;;;;1.80;99.90;;;;;;2621821;47;20532;31
2022/11/20 12:27:28;;;;;;;;;;;1.90;99.90;;;;;;2603350;54;19935;31
2022/11/20 12:30:03;;;;;;;;;;;1.80;99.90;;;;;;2621985;47;19934;31
2022/11/20 12:32:54;;;;;;;;;;;1.90;99.90;;;;;;2621401;47;20755;31
2022/11/20 12:35:41;;;;;;;;;;;1.90;99.90;;;;;;2621622;47;19942;31
2022/11/20 12:38:23;;;;;;;;;;;1.90;99.90;;;;;;2603460;54;20773;31
2022/11/20 12:40:58;;;;;;;;;;;1.90;99.90;;;;;;2603267;54;19950;31
2022/11/20 12:46:21;;;;;;;;;;;1.90;99.90;;;;;;2603321;54;20496;31
2022/11/20 12:48:56;;;;;;;;;;;1.90;99.90;;;;;;2621567;47;19934;31
2022/11/20 12:51:50;;;;;;;;;;;1.90;99.90;;;;;;2603204;54;20740;31
2022/11/20 12:54:40;;;;;;;;;;;1.90;99.90;;;;;;2621847;47;20548;31
2022/11/20 12:57:13;;;;;;;;;;;1.90;99.90;;;;;;2608323;47;20797;31
2022/11/20 12:59:55;;;;;;;;;;;1.90;99.90;;;;;;2621730;47;19935;31
2022/11/20 13:02:29;;;;;;;;;;;1.90;99.90;;;;;;2603204;54;20724;31
2022/11/20 13:05:09;;;;;;;;;;;1.90;99.90;;;;;;2603284;54;19935;31
2022/11/20 13:07:43;;;;;;;;;;;1.90;99.90;;;;;;2603433;54;19931;31
2022/11/20 13:10:17;;;;;;;;;;;1.80;99.90;;;;;;2602885;54;20875;31
2022/11/20 13:12:52;;;;;;;;;;;1.80;99.90;;;;;;2603007;54;20846;31
2022/11/20 13:15:47;;;;;;;;;;;1.90;99.90;;;;;;2621793;47;19934;31
2022/11/20 13:18:20;;;;;;;;;;;1.90;99.90;;;;;;2603459;54;20822;31
2022/11/20 13:20:53;;;;;;;;;;;1.90;99.90;;;;;;2603768;54;20469;31
2022/11/20 13:23:28;;;;;;;;;;;1.80;99.90;;;;;;2604124;54;19939;31
2022/11/20 13:26:05;;;;;;;;;;;1.80;99.90;;;;;;2792625;31;20457;31
2022/11/20 13:28:40;;;;;;;;;;;1.90;99.90;;;;;;2604107;54;20737;31
2022/11/20 13:31:24;;;;;;;;;;;1.80;99.90;;;;;;2773868;31;21409;31
2022/11/20 13:33:57;;;;;;;;;;;1.80;99.90;;;;;;2604002;54;19941;31
2022/11/20 13:36:32;;;;;;;;;;;1.80;99.90;;;;;;2622630;46;19934;31
2022/11/20 13:39:06;;;;;;;;;;;1.80;99.90;;;;;;2605408;46;20796;31
2022/11/20 13:41:40;;;;;;;;;;;1.80;99.90;;;;;;2603837;54;20754;31
2022/11/20 13:44:18;;;;;;;;;;;1.80;99.90;;;;;;2622272;46;20017;31
2022/11/20 13:46:53;;;;;;;;;;;1.80;99.90;;;;;;2604253;54;20788;31
2022/11/20 13:49:28;;;;;;;;;;;1.80;99.90;;;;;;2603718;54;19946;31
2022/11/20 13:52:06;;;;;;;;;;;1.70;99.90;;;;;;2603937;54;19938;31
2022/11/20 13:54:55;;;;;;;;;;;1.70;99.90;;;;;;2603785;54;19942;31
2022/11/20 13:57:37;;;;;;;;;;;1.70;99.90;;;;;;2603876;54;19931;31
2022/11/20 14:00:13;;;;;;;;;;;1.70;99.90;;;;;;2603746;54;20690;31
2022/11/20 14:02:50;;;;;;;;;;;1.70;99.90;;;;;;2603692;54;19934;31
2022/11/20 14:05:33;;;;;;;;;;;1.60;99.90;;;;;;2603804;54;20708;31
2022/11/20 14:08:07;;;;;;;;;;;1.60;99.90;;;;;;2603852;54;19985;31
2022/11/20 14:10:41;;;;;;;;;;;1.60;99.90;;;;;;2720658;39;20441;31
2022/11/20 14:13:18;;;;;;;;;;;1.60;99.90;;;;;;2622147;46;19941;31
2022/11/20 14:15:54;;;;;;;;;;;1.60;99.90;;;;;;2773793;31;20517;31
2022/11/20 14:18:29;;;;;;;;;;;1.60;99.90;;;;;;2615253;46;19985;31
2022/11/20 14:21:08;;;;;;;;;;;1.60;99.90;;;;;;2603738;54;20795;31
2022/11/20 14:23:42;;;;;;;;;;;1.60;99.90;;;;;;2603850;54;21431;31
2022/11/20 14:26:18;;;;;;;;;;;1.60;99.90;;;;;;2622450;46;19993;31
2022/11/20 14:28:52;;;;;;;;;;;1.80;99.90;;;;;;2622220;46;20504;31
2022/11/20 14:31:26;;;;;;;;;;;1.60;99.90;;;;;;2622029;46;19934;31
2022/11/20 14:34:00;;;;;;;;;;;1.60;99.90;;;;;;2702042;39;20463;31
2022/11/20 14:36:37;;;;;;;;;;;1.60;99.90;;;;;;2603573;54;19939;31
2022/11/20 14:39:11;;;;;;;;;;;1.60;99.90;;;;;;2622330;46;20005;31
2022/11/20 14:41:52;;;;;;;;;;;1.50;99.90;;;;;;2603782;54;20713;31
2022/11/20 14:44:26;;;;;;;;;;;1.50;99.90;;;;;;2604026;54;21240;31
2022/11/20 14:47:00;;;;;;;;;;;1.50;99.90;;;;;;2603713;54;20024;31
2022/11/20 14:49:34;;;;;;;;;;;1.40;99.90;;;;;;2603690;54;19934;31
2022/11/20 14:52:15;;;;;;;;;;;1.40;99.90;;;;;;2603859;54;21255;31
2022/11/20 14:54:49;;;;;;;;;;;1.40;99.90;;;;;;2702430;39;20269;31
2022/11/20 14:57:23;;;;;;;;;;;1.30;99.90;;;;;;2603859;54;19934;31
2022/11/20 15:00:08;;;;;;;;;;;1.30;99.90;;;;;;2603463;54;19934;31
2022/11/20 15:02:42;;;;;;;;;;;1.20;99.90;;;;;;2603672;54;19956;31
2022/11/20 15:05:16;;;;;;;;;;;1.20;99.90;;;;;;2603546;54;19935;31
2022/11/20 15:07:53;;;;;;;;;;;1.10;99.90;;;;;;2603618;54;20021;31
2022/11/20 15:10:27;;;;;;;;;;;1.00;99.90;;;;;;2621808;46;20747;31
2022/11/20 15:13:01;;;;;;;;;;;1.00;99.90;;;;;;2603553;54;20762;31
2022/11/20 15:15:42;;;;;;;;;;;0.90;99.90;;;;;;2603436;54;20488;31
2022/11/20 15:18:16;;;;;;;;;;;0.90;99.90;;;;;;2603654;54;19947;31
2022/11/20 15:20:49;;;;;;;;;;;0.90;99.90;;;;;;2622129;46;20769;31
2022/11/20 15:23:26;;;;;;;;;;;0.80;99.90;;;;;;2603428;54;19934;31
2022/11/20 15:25:59;;;;;;;;;;;0.80;99.90;;;;;;2603801;54;19935;31
2022/11/20 15:28:34;;;;;;;;;;;0.70;99.90;;;;;;2603574;54;20014;31
2022/11/20 15:31:09;;;;;;;;;;;0.60;99.90;;;;;;2622014;46;19943;31
2022/11/20 15:33:42;;;;;;;;;;;0.60;99.90;;;;;;2603438;54;19997;31
2022/11/20 15:36:16;;;;;;;;;;;0.50;99.90;;;;;;2622124;46;19951;31